Details for Ryanair at LGAV




Go Back


Latest METAR
Local Time

LGAV 221020Z 05011KT CAVOK 27/14 Q1017 NOSIG
22/09/2018, 13:47:49

Description
Results
Ryanair Logo
Number of Pilots based at LGAV
0 Pilots Based here
Number of Ryanair Flights Departed from LGAV
4 Flights Departed
Number of Ryanair Flights Arrived at LGAV
3 Flights Arrived
Number of Ryanair Schedules Departing from LGAV
74 Schedules
Number of Ryanair Schedules Arriving at LGAV
70 Schedules
Number of Ryanair Schedules Departing from LGAV availible today
26 Schedules Today
Number of Ryanair Schedules Arriving at LGAV availible today
25 Schedules Today
Average Landing Rate at LGAV
-139 fpm
Ryanair Average Landing Rate at LGAV
-133 fpm
Total Fuel Purchased at LGAV by Ryanair
20,481.05 kgs / 45,152.52 lbs

Pilots Based at LGAV


Pilot ID
Pilot Name
Pilot Rank
No. of Flights
No. of Flying Hours
There are no pilots assigned to this hub!   Will you be the first?
Content